createdAt,value
2022-12-22T00:01:34.599Z,99635.25
2022-12-22T00:04:24.117Z,99626.41
2022-12-22T00:07:10.876Z,99625.56
2022-12-22T00:09:57.040Z,99633.16
2022-12-22T00:12:45.471Z,99626.19
2022-12-22T00:15:34.310Z,99623.53
2022-12-22T00:18:22.127Z,99611.34
2022-12-22T00:21:08.716Z,99609.50
2022-12-22T00:23:55.794Z,99601.59
2022-12-22T00:26:41.704Z,99601.59
2022-12-22T00:29:33.681Z,99600.22
2022-12-22T00:32:19.680Z,99604.84
2022-12-22T00:35:05.616Z,99600.50
2022-12-22T00:37:53.085Z,99596.88
2022-12-22T00:40:42.304Z,99592.53
2022-12-22T00:43:28.655Z,99582.81
2022-12-22T00:46:18.658Z,99573.34
2022-12-22T00:49:05.284Z,99572.28
2022-12-22T00:51:52.626Z,99560.34
2022-12-22T00:54:39.281Z,99553.50
2022-12-22T00:57:34.474Z,99553.81
2022-12-22T01:00:20.568Z,99563.78
2022-12-22T01:03:06.258Z,99560.50
2022-12-22T01:05:52.715Z,99550.78
2022-12-22T01:08:38.532Z,99543.66
2022-12-22T01:11:26.479Z,99545.44
2022-12-22T01:14:13.592Z,99531.47
2022-12-22T01:16:59.203Z,99533.25
2022-12-22T01:19:44.591Z,99525.56
2022-12-22T01:22:36.447Z,99527.81
2022-12-22T01:25:29.632Z,99521.69
2022-12-22T01:28:14.731Z,99521.44
2022-12-22T01:31:01.752Z,99516.28
2022-12-22T01:33:47.500Z,99516.41
2022-12-22T01:36:34.816Z,99515.56
2022-12-22T01:39:20.241Z,99512.00
2022-12-22T01:42:08.377Z,99508.56
2022-12-22T01:44:53.749Z,99513.53
2022-12-22T01:48:01.608Z,99504.00
2022-12-22T01:50:51.021Z,99501.25
2022-12-22T01:53:39.550Z,99495.31
2022-12-22T01:56:25.771Z,99493.59
2022-12-22T01:59:14.784Z,99483.91
2022-12-22T02:02:01.810Z,99486.53
2022-12-22T02:04:53.996Z,99464.56
2022-12-22T02:07:56.530Z,99468.59
2022-12-22T02:10:56.878Z,99459.03
2022-12-22T02:13:52.968Z,99454.03
2022-12-22T02:16:50.300Z,99454.63
2022-12-22T02:19:52.684Z,99451.97
2022-12-22T02:22:54.267Z,99450.97
2022-12-22T02:25:47.233Z,99438.97
2022-12-22T02:28:37.132Z,99446.63
2022-12-22T02:31:38.155Z,99440.69
2022-12-22T02:34:24.201Z,99435.22
2022-12-22T02:37:25.321Z,99428.41
2022-12-22T02:40:20.732Z,99425.59
2022-12-22T02:43:21.453Z,99426.56
2022-12-22T02:46:16.249Z,99421.28
2022-12-22T02:49:08.883Z,99396.28
2022-12-22T02:52:05.380Z,99389.16
2022-12-22T02:54:53.513Z,99389.84
2022-12-22T02:57:39.201Z,99382.78
2022-12-22T03:00:26.392Z,99386.34
2022-12-22T03:03:13.681Z,99387.22
2022-12-22T03:06:00.464Z,99368.97
2022-12-22T03:08:46.098Z,99376.72
2022-12-22T03:11:32.441Z,99380.91
2022-12-22T03:14:17.907Z,99378.59
2022-12-22T03:17:03.075Z,99366.88
2022-12-22T03:19:49.764Z,99372.22
2022-12-22T03:22:35.541Z,99366.03
2022-12-22T03:25:21.095Z,99360.03
2022-12-22T03:27:51.497Z,99364.22
2022-12-22T03:30:19.727Z,99360.41
2022-12-22T03:32:47.642Z,99356.75
2022-12-22T03:35:23.707Z,99345.56
2022-12-22T03:37:51.568Z,99348.75
2022-12-22T03:40:19.647Z,99341.16
2022-12-22T03:43:05.299Z,99332.66
2022-12-22T03:45:53.431Z,99339.38
2022-12-22T03:48:23.596Z,99340.22
2022-12-22T03:50:53.133Z,99343.97
2022-12-22T03:53:22.121Z,99327.97
2022-12-22T03:55:50.769Z,99320.31
2022-12-22T03:58:18.783Z,99329.84
2022-12-22T04:00:46.735Z,99322.88
2022-12-22T04:03:15.314Z,99311.88
2022-12-22T04:05:46.787Z,99307.13
2022-12-22T04:08:16.296Z,99296.66
2022-12-22T04:11:04.080Z,99287.03
2022-12-22T04:13:32.927Z,99284.63
2022-12-22T04:16:08.780Z,99284.22
2022-12-22T04:18:39.873Z,99259.63
2022-12-22T04:21:11.737Z,99264.06
2022-12-22T04:23:46.931Z,99277.09
2022-12-22T04:26:14.837Z,99272.22
2022-12-22T04:28:42.730Z,99263.63
2022-12-22T04:31:11.245Z,99266.53
2022-12-22T04:33:39.212Z,99244.81
2022-12-22T04:36:08.013Z,99204.56
2022-12-22T04:38:36.536Z,99235.03
2022-12-22T04:41:06.743Z,99221.84
2022-12-22T04:43:35.206Z,99212.38
2022-12-22T04:46:03.740Z,99208.88
2022-12-22T04:48:32.422Z,99196.88
2022-12-22T04:51:02.580Z,99191.59
2022-12-22T04:53:32.672Z,99165.22
2022-12-22T04:56:03.068Z,99194.78
2022-12-22T04:58:33.216Z,99184.81
2022-12-22T05:01:10.178Z,99190.94
2022-12-22T05:03:39.285Z,99186.78
2022-12-22T05:06:07.740Z,99178.53
2022-12-22T05:08:35.998Z,99189.91
2022-12-22T05:11:03.909Z,99190.25
2022-12-22T05:13:34.001Z,99187.38
2022-12-22T05:16:06.856Z,99189.91
2022-12-22T05:18:35.254Z,99178.16
2022-12-22T05:21:07.557Z,99179.09
2022-12-22T05:23:35.529Z,99160.88
2022-12-22T05:26:03.365Z,99172.66
2022-12-22T05:28:34.848Z,99169.56
2022-12-22T05:31:08.533Z,99164.47
2022-12-22T05:33:37.062Z,99178.09
2022-12-22T05:36:07.975Z,99172.13
2022-12-22T05:38:35.861Z,99177.41
2022-12-22T05:41:04.903Z,99169.72
2022-12-22T05:43:32.975Z,99172.97
2022-12-22T05:46:03.495Z,99168.03
2022-12-22T05:48:38.600Z,99170.41
2022-12-22T05:51:08.576Z,99160.66
2022-12-22T05:53:36.711Z,99168.81
2022-12-22T05:56:05.567Z,99161.56
2022-12-22T05:58:33.909Z,99145.75
2022-12-22T06:01:02.418Z,99146.94
2022-12-22T06:03:32.116Z,99133.91
2022-12-22T06:06:00.543Z,99136.03
2022-12-22T06:08:29.908Z,99142.25
2022-12-22T06:10:59.589Z,99142.75
2022-12-22T06:13:29.758Z,99096.31
2022-12-22T06:15:58.153Z,99138.41
2022-12-22T06:18:26.107Z,99144.47
2022-12-22T06:20:55.739Z,99115.53
2022-12-22T06:23:24.215Z,99131.69
2022-12-22T06:25:57.121Z,99141.13
2022-12-22T06:28:26.562Z,99153.97
2022-12-22T06:30:55.252Z,99141.72
2022-12-22T06:33:25.153Z,99148.94
2022-12-22T06:36:00.279Z,99150.81
2022-12-22T06:38:47.285Z,99159.59
2022-12-22T06:41:37.840Z,99157.59
2022-12-22T06:44:05.044Z,99153.91
2022-12-22T06:46:53.454Z,99179.56
2022-12-22T06:49:26.683Z,99179.44
2022-12-22T06:51:56.244Z,99184.03
2022-12-22T06:54:26.702Z,99195.13
2022-12-22T06:56:54.809Z,99201.75
2022-12-22T06:59:23.410Z,99204.31
2022-12-22T07:01:51.361Z,99218.16
2022-12-22T07:04:20.743Z,99221.03
2022-12-22T07:06:48.834Z,99215.06
2022-12-22T07:09:20.199Z,99206.94
2022-12-22T07:11:48.068Z,99201.88
2022-12-22T07:14:15.942Z,99195.22
2022-12-22T07:16:43.858Z,99197.97
2022-12-22T07:19:12.000Z,99198.34
2022-12-22T07:21:40.375Z,99201.31
2022-12-22T07:24:09.061Z,99200.22
2022-12-22T07:26:38.499Z,99191.47
2022-12-22T07:29:10.238Z,99195.88
2022-12-22T07:31:39.339Z,99179.06
2022-12-22T07:34:07.587Z,99188.22
2022-12-22T07:36:36.581Z,99201.00
2022-12-22T07:39:13.531Z,99204.25
2022-12-22T07:42:03.323Z,99209.59
2022-12-22T07:44:31.256Z,99211.59
2022-12-22T07:47:00.296Z,99209.19
2022-12-22T07:49:47.802Z,99203.91
2022-12-22T07:52:17.038Z,99208.19
2022-12-22T07:54:45.864Z,99203.91
2022-12-22T07:57:15.405Z,99211.59
2022-12-22T07:59:57.936Z,99216.72
2022-12-22T08:02:36.866Z,99219.72
2022-12-22T08:05:08.203Z,99216.28
2022-12-22T08:07:38.720Z,99217.84
2022-12-22T08:10:09.748Z,99218.00
2022-12-22T08:12:46.717Z,99207.31
2022-12-22T08:15:15.321Z,99215.22
2022-12-22T08:17:44.857Z,99212.91
2022-12-22T08:20:13.350Z,99213.91
2022-12-22T08:22:41.167Z,99211.50
2022-12-22T08:25:10.008Z,99197.34
2022-12-22T08:27:45.326Z,99202.59
2022-12-22T08:30:16.384Z,99219.06
2022-12-22T08:32:48.435Z,99234.16
2022-12-22T08:35:17.533Z,99226.81
2022-12-22T08:37:47.683Z,99227.19
2022-12-22T08:40:19.052Z,99241.69
2022-12-22T08:42:50.946Z,99239.78
2022-12-22T08:45:18.886Z,99233.03
2022-12-22T08:47:48.140Z,99239.13
2022-12-22T08:50:16.374Z,99239.00
2022-12-22T08:52:44.265Z,99243.81
2022-12-22T08:55:12.522Z,99264.44
2022-12-22T08:57:40.380Z,99255.19
2022-12-22T09:00:13.120Z,99266.44
2022-12-22T09:02:41.299Z,99257.03
2022-12-22T09:05:09.828Z,99243.97
2022-12-22T09:07:39.154Z,99244.88
2022-12-22T09:10:08.143Z,99237.78
2022-12-22T09:12:36.537Z,99216.81
2022-12-22T09:15:06.456Z,99223.50
2022-12-22T09:17:37.143Z,99231.66
2022-12-22T09:20:06.714Z,99226.22
2022-12-22T09:22:34.608Z,99233.97
2022-12-22T09:25:02.508Z,99247.88
2022-12-22T09:27:31.564Z,99247.31
2022-12-22T09:29:59.448Z,99240.22
2022-12-22T09:32:28.523Z,99247.63
2022-12-22T09:34:57.986Z,99231.06
2022-12-22T09:37:25.907Z,99233.63
2022-12-22T09:39:53.771Z,99237.03
2022-12-22T09:42:24.230Z,99259.06
2022-12-22T09:44:53.708Z,99245.97
2022-12-22T09:47:27.555Z,99269.13
2022-12-22T09:49:58.640Z,99270.34
2022-12-22T09:52:41.800Z,99268.50
2022-12-22T09:55:19.125Z,99258.00
2022-12-22T09:57:47.036Z,99261.97
2022-12-22T10:00:17.138Z,99266.56
2022-12-22T10:02:53.079Z,99262.28
2022-12-22T10:05:38.320Z,99266.78
2022-12-22T10:08:12.998Z,99258.84
2022-12-22T10:10:41.456Z,99250.44
2022-12-22T10:13:18.420Z,99245.53
2022-12-22T10:15:46.714Z,99254.72
2022-12-22T10:18:17.219Z,99242.69
2022-12-22T10:20:50.120Z,99234.38
2022-12-22T10:23:21.666Z,99232.03
2022-12-22T10:29:00.857Z,99220.63
2022-12-22T10:31:30.162Z,99216.78
2022-12-22T10:34:13.010Z,99215.63
2022-12-22T10:36:51.296Z,99222.97
2022-12-22T10:39:23.488Z,99214.94
2022-12-22T10:41:55.285Z,99220.69
2022-12-22T10:44:26.556Z,99208.59
2022-12-22T10:46:56.363Z,99172.50
2022-12-22T10:49:27.525Z,99156.72
2022-12-22T10:52:10.204Z,99171.34
2022-12-22T10:54:41.069Z,99159.88
2022-12-22T10:57:28.384Z,99161.88
2022-12-22T11:03:57.673Z,99151.97
2022-12-22T11:06:28.863Z,99169.81
2022-12-22T11:09:31.239Z,99161.75
2022-12-22T11:11:57.554Z,99174.06
2022-12-22T11:14:36.662Z,99196.09
2022-12-22T11:17:13.653Z,99229.72
2022-12-22T11:20:04.668Z,99217.59
2022-12-22T11:22:39.938Z,99217.34
2022-12-22T11:25:24.783Z,99216.66
2022-12-22T11:28:11.329Z,99215.97
2022-12-22T11:30:51.971Z,99220.84
2022-12-22T11:33:39.510Z,99233.28
2022-12-22T11:36:14.523Z,99229.88
2022-12-22T11:38:51.281Z,99243.97
2022-12-22T11:41:37.015Z,99255.78
2022-12-22T11:44:35.658Z,99275.16
2022-12-22T11:47:15.157Z,99270.88
2022-12-22T11:49:52.927Z,99289.34
2022-12-22T11:52:39.404Z,99308.13
2022-12-22T11:55:26.094Z,99331.03
2022-12-22T11:58:18.369Z,99329.38
2022-12-22T12:01:16.253Z,99339.81
2022-12-22T12:04:30.513Z,99358.78
2022-12-22T12:07:25.380Z,99374.84
2022-12-22T12:10:03.479Z,99378.50
2022-12-22T12:12:45.545Z,99392.69
2022-12-22T12:15:27.850Z,99418.78
2022-12-22T12:18:26.359Z,99427.78
2022-12-22T12:21:03.654Z,99433.97
2022-12-22T12:23:47.311Z,99440.59
2022-12-22T12:26:20.465Z,99445.09
2022-12-22T12:29:01.783Z,99454.38
2022-12-22T12:31:35.774Z,99450.59
2022-12-22T12:34:04.784Z,99463.06
2022-12-22T12:36:44.951Z,99476.06
2022-12-22T12:39:21.012Z,99479.69
2022-12-22T12:42:00.563Z,99489.44
2022-12-22T12:44:31.612Z,99500.59
2022-12-22T12:47:24.565Z,99519.09
2022-12-22T12:50:03.747Z,99545.59
2022-12-22T12:53:14.823Z,99552.50
2022-12-22T12:55:57.775Z,99575.75
2022-12-22T12:58:52.919Z,99615.84
2022-12-22T13:01:58.484Z,99655.16
2022-12-22T13:05:04.441Z,99696.19
2022-12-22T13:08:15.590Z,99743.94
2022-12-22T13:11:03.092Z,99795.44
2022-12-22T13:13:48.953Z,99852.94
2022-12-22T13:16:39.490Z,99910.91
2022-12-22T13:19:22.896Z,99994.84
2022-12-22T13:21:57.839Z,100065.22
2022-12-22T13:24:30.093Z,100165.13
2022-12-22T13:27:06.911Z,100261.44
2022-12-22T13:29:44.370Z,100304.66
2022-12-22T13:32:26.308Z,100338.47
2022-12-22T13:35:30.344Z,100372.44
2022-12-22T13:37:53.855Z,100370.09
2022-12-22T13:40:23.902Z,100341.28
2022-12-22T13:42:53.980Z,100365.88
2022-12-22T13:45:38.271Z,100365.06
2022-12-22T13:48:10.859Z,100349.03
2022-12-22T13:50:43.835Z,100338.00
2022-12-22T13:53:49.535Z,100327.00
2022-12-22T13:56:09.725Z,100305.84
2022-12-22T13:58:42.843Z,100312.31
2022-12-22T14:01:19.887Z,100292.22
2022-12-22T14:04:01.284Z,100277.91
2022-12-22T14:06:33.726Z,100244.25
2022-12-22T14:09:15.401Z,100245.88
2022-12-22T14:11:51.513Z,100236.84
2022-12-22T14:14:26.149Z,100194.31
2022-12-22T14:16:57.000Z,100158.34
2022-12-22T14:19:27.428Z,100123.31
2022-12-22T14:22:06.943Z,100088.91
2022-12-22T14:24:43.243Z,100067.97
2022-12-22T14:27:20.029Z,100072.19
2022-12-22T14:29:48.246Z,100060.03
2022-12-22T14:32:39.206Z,100039.47
2022-12-22T14:35:23.707Z,100041.41
2022-12-22T14:37:56.095Z,100020.06
2022-12-22T14:40:38.629Z,100015.25
2022-12-22T14:43:25.455Z,100001.09
2022-12-22T14:46:04.252Z,99978.88
2022-12-22T14:48:36.019Z,99966.13
2022-12-22T14:51:07.169Z,99944.34
2022-12-22T14:53:44.567Z,99932.31
2022-12-22T14:56:15.189Z,99919.19
2022-12-22T14:58:47.564Z,99915.00
2022-12-22T15:01:21.858Z,99902.00
2022-12-22T15:04:07.180Z,99898.31
2022-12-22T15:06:48.352Z,99885.25
2022-12-22T15:10:16.458Z,99883.84
2022-12-22T15:12:47.692Z,99863.94
2022-12-22T15:15:19.904Z,99856.03
2022-12-22T15:17:51.223Z,99858.16
2022-12-22T15:20:42.138Z,99849.50
2022-12-22T15:23:14.902Z,99835.75
2022-12-22T15:25:47.142Z,99836.28
2022-12-22T15:28:25.994Z,99833.56
2022-12-22T15:31:13.994Z,99831.41
2022-12-22T15:33:50.551Z,99840.38
2022-12-22T15:36:23.647Z,99827.38
2022-12-22T15:38:58.090Z,99821.38
2022-12-22T15:41:28.354Z,99819.41
2022-12-22T15:43:59.229Z,99803.91
2022-12-22T15:46:28.908Z,99802.13
2022-12-22T15:48:58.162Z,99814.94
2022-12-22T15:51:30.936Z,99810.44
2022-12-22T15:54:00.764Z,99814.88
2022-12-22T15:56:33.414Z,99800.88
2022-12-22T15:59:07.255Z,99814.72
2022-12-22T16:01:37.562Z,99811.31
2022-12-22T16:04:06.026Z,99813.88
2022-12-22T16:06:37.130Z,99819.16
2022-12-22T16:09:12.145Z,99805.50
2022-12-22T16:11:40.262Z,99814.31
2022-12-22T16:14:11.435Z,99814.53
2022-12-22T16:16:40.145Z,99808.31
2022-12-22T16:19:13.683Z,99794.09
2022-12-22T16:21:42.065Z,99789.06
2022-12-22T16:24:17.857Z,99790.00
2022-12-22T16:26:48.453Z,99774.06
2022-12-22T16:29:20.370Z,99768.78
2022-12-22T16:31:50.503Z,99760.88
2022-12-22T16:34:20.262Z,99752.16
2022-12-22T16:36:48.092Z,99755.59
2022-12-22T16:39:16.153Z,99754.53
2022-12-22T16:41:45.735Z,99744.84
2022-12-22T16:44:24.416Z,99743.88
2022-12-22T16:46:54.011Z,99736.03
2022-12-22T16:49:26.610Z,99741.56
2022-12-22T16:51:58.658Z,99741.84
2022-12-22T16:54:27.771Z,99750.47
2022-12-22T16:56:57.072Z,99751.53
2022-12-22T16:59:29.664Z,99755.03
2022-12-22T17:02:00.172Z,99757.19
2022-12-22T17:04:30.879Z,99749.50
2022-12-22T17:07:02.052Z,99754.69
2022-12-22T17:09:37.087Z,99753.53
2022-12-22T17:14:56.295Z,99769.72
2022-12-22T17:17:32.881Z,99770.91
2022-12-22T17:20:07.625Z,99781.56
2022-12-22T17:22:37.060Z,99783.28
2022-12-22T17:25:07.903Z,99783.53
2022-12-22T17:27:39.174Z,99779.31
2022-12-22T17:30:18.670Z,99776.66
2022-12-22T17:32:47.076Z,99775.19
2022-12-22T17:35:19.480Z,99761.19
2022-12-22T17:37:49.660Z,99756.00
2022-12-22T17:40:24.278Z,99750.97
2022-12-22T17:42:52.436Z,99749.31
2022-12-22T17:45:26.693Z,99741.47
2022-12-22T17:47:58.095Z,99727.34
2022-12-22T17:50:27.412Z,99731.75
2022-12-22T17:56:07.353Z,99710.94
2022-12-22T17:58:27.843Z,99701.66
2022-12-22T18:00:57.253Z,99693.22
2022-12-22T18:03:25.181Z,99679.97
2022-12-22T18:05:54.986Z,99679.31
2022-12-22T18:08:26.016Z,99662.97
2022-12-22T18:10:57.165Z,99666.41
2022-12-22T18:13:27.282Z,99662.84
2022-12-22T18:15:57.966Z,99649.63
2022-12-22T18:18:27.045Z,99654.88
2022-12-22T18:21:07.310Z,99638.31
2022-12-22T18:23:38.126Z,99640.28
2022-12-22T18:26:08.835Z,99628.91
2022-12-22T18:28:39.599Z,99633.50
2022-12-22T18:31:09.493Z,99627.94
2022-12-22T18:33:37.779Z,99631.38
2022-12-22T18:36:07.176Z,99624.28
2022-12-22T18:38:36.318Z,99619.69
2022-12-22T18:41:04.341Z,99619.75
2022-12-22T18:43:34.956Z,99610.09
2022-12-22T18:46:02.860Z,99612.84
2022-12-22T18:48:32.174Z,99611.34
2022-12-22T18:51:00.048Z,99606.22
2022-12-22T18:53:32.891Z,99605.47
2022-12-22T18:56:03.405Z,99602.06
2022-12-22T18:58:31.501Z,99601.19
2022-12-22T19:00:59.946Z,99588.84
2022-12-22T19:03:30.303Z,99596.78
2022-12-22T19:05:59.660Z,99592.38
2022-12-22T19:08:31.441Z,99591.41
2022-12-22T19:11:01.681Z,99591.28
2022-12-22T19:13:33.597Z,99599.97
2022-12-22T19:16:03.100Z,99599.06
2022-12-22T19:18:33.881Z,99591.28
2022-12-22T19:21:13.424Z,99587.72
2022-12-22T19:23:41.924Z,99591.00
2022-12-22T19:26:22.925Z,99586.59
2022-12-22T19:29:02.506Z,99591.78
2022-12-22T19:31:32.352Z,99582.13
2022-12-22T19:34:02.173Z,99584.63
2022-12-22T19:36:39.884Z,99571.53
2022-12-22T19:39:21.915Z,99578.38
2022-12-22T19:41:52.403Z,99577.59
2022-12-22T19:44:23.400Z,99562.00
2022-12-22T19:46:52.389Z,99556.16
2022-12-22T19:49:22.656Z,99562.34
2022-12-22T19:51:53.108Z,99565.59
2022-12-22T19:54:21.948Z,99561.59
2022-12-22T19:56:52.215Z,99563.38
2022-12-22T19:59:35.603Z,99563.38
2022-12-22T20:02:24.668Z,99576.47
2022-12-22T20:04:53.134Z,99572.94
2022-12-22T20:07:25.363Z,99562.41
2022-12-22T20:09:54.484Z,99561.28
2022-12-22T20:12:26.884Z,99556.88
2022-12-22T20:14:55.366Z,99558.50
2022-12-22T20:17:23.539Z,99561.78
2022-12-22T20:19:51.498Z,99557.50
2022-12-22T20:22:23.923Z,99548.91
2022-12-22T20:24:54.497Z,99544.97
2022-12-22T20:27:25.495Z,99540.56
2022-12-22T20:29:53.589Z,99527.19
2022-12-22T20:32:27.634Z,99542.13
2022-12-22T20:34:56.670Z,99532.53
2022-12-22T20:37:26.354Z,99525.41
2022-12-22T20:39:54.245Z,99524.50
2022-12-22T20:42:24.622Z,99526.28
2022-12-22T20:45:02.920Z,99523.66
2022-12-22T20:47:34.541Z,99519.00
2022-12-22T20:50:02.898Z,99523.34
2022-12-22T20:52:32.669Z,99509.50
2022-12-22T20:55:00.640Z,99511.97
2022-12-22T20:57:29.053Z,99509.41
2022-12-22T20:59:57.075Z,99510.84
2022-12-22T21:02:30.722Z,99504.13
2022-12-22T21:05:00.335Z,99503.06
2022-12-22T21:07:28.408Z,99496.16
2022-12-22T21:09:57.874Z,99490.97
2022-12-22T21:12:25.780Z,99486.66
2022-12-22T21:14:53.675Z,99484.03
2022-12-22T21:17:21.850Z,99489.19
2022-12-22T21:19:49.962Z,99486.66
2022-12-22T21:22:17.909Z,99487.41
2022-12-22T21:24:45.977Z,99497.88
2022-12-22T21:27:20.015Z,99498.59
2022-12-22T21:29:50.943Z,99500.44
2022-12-22T21:32:18.981Z,99496.91
2022-12-22T21:34:47.091Z,99490.63
2022-12-22T21:37:18.776Z,99497.53
2022-12-22T21:39:46.938Z,99486.09
2022-12-22T21:42:18.279Z,99493.22
2022-12-22T21:44:46.970Z,99487.94
2022-12-22T21:47:17.597Z,99489.66
2022-12-22T21:49:45.424Z,99492.00
2022-12-22T21:52:13.833Z,99482.28
2022-12-22T21:54:42.379Z,99483.13
2022-12-22T21:57:19.398Z,99480.56
2022-12-22T21:59:48.814Z,99484.13
2022-12-22T22:02:21.398Z,99484.13
2022-12-22T22:04:54.545Z,99489.25
2022-12-22T22:07:23.161Z,99468.97
2022-12-22T22:09:51.181Z,99479.19
2022-12-22T22:12:37.515Z,99474.84
2022-12-22T22:15:09.466Z,99469.66
2022-12-22T22:17:38.024Z,99467.09
2022-12-22T22:20:08.479Z,99475.78
2022-12-22T22:22:36.913Z,99471.44
2022-12-22T22:25:08.315Z,99469.59
2022-12-22T22:27:36.547Z,99475.00
2022-12-22T22:30:05.762Z,99465.56
2022-12-22T22:32:35.396Z,99478.41
2022-12-22T22:35:03.501Z,99475.56
2022-12-22T22:37:31.746Z,99473.88
2022-12-22T22:40:00.167Z,99470.44
2022-12-22T22:42:30.736Z,99472.16
2022-12-22T22:44:59.817Z,99463.53
2022-12-22T22:47:30.248Z,99464.31
2022-12-22T22:49:59.827Z,99467.88
2022-12-22T22:52:30.408Z,99467.88
2022-12-22T22:54:58.605Z,99467.59
2022-12-22T22:57:26.709Z,99458.91
2022-12-22T22:59:54.834Z,99456.50
2022-12-22T23:02:23.194Z,99454.56
2022-12-22T23:04:51.274Z,99454.44
2022-12-22T23:07:21.804Z,99460.50
2022-12-22T23:09:49.681Z,99461.47
2022-12-22T23:12:17.524Z,99446.53
2022-12-22T23:14:45.359Z,99455.22
2022-12-22T23:17:13.383Z,99442.97
2022-12-22T23:19:41.347Z,99437.72
2022-12-22T23:22:12.432Z,99426.25
2022-12-22T23:24:43.053Z,99435.72
2022-12-22T23:27:11.331Z,99441.13
2022-12-22T23:29:40.912Z,99441.84
2022-12-22T23:32:08.864Z,99436.56
2022-12-22T23:34:37.269Z,99441.28
2022-12-22T23:37:06.145Z,99444.69
2022-12-22T23:39:34.325Z,99444.69
2022-12-22T23:42:04.796Z,99450.88
2022-12-22T23:44:32.629Z,99451.66
2022-12-22T23:47:00.576Z,99442.69
2022-12-22T23:49:31.272Z,99442.63
2022-12-22T23:52:09.451Z,99445.25
2022-12-22T23:54:45.735Z,99441.78
2022-12-22T23:57:23.949Z,99442.69
2022-12-22T23:59:53.148Z,99440.91
